sensor_id;sensor_type;location;lat;lon;timestamp;P1;durP1;ratioP1;P2;durP2;ratioP2
40729;SDS011;26418;50.070;8.436;2022-08-03T00:02:24;2.22;;;1.67;;
40729;SDS011;26418;50.070;8.436;2022-08-03T00:04:50;1.95;;;1.67;;
40729;SDS011;26418;50.070;8.436;2022-08-03T00:07:15;2.35;;;1.67;;
40729;SDS011;26418;50.070;8.436;2022-08-03T00:09:41;1.83;;;1.60;;
40729;SDS011;26418;50.070;8.436;2022-08-03T00:12:06;2.17;;;1.90;;
40729;SDS011;26418;50.070;8.436;2022-08-03T00:14:32;1.63;;;1.50;;
40729;SDS011;26418;50.070;8.436;2022-08-03T00:16:58;1.40;;;1.30;;
40729;SDS011;26418;50.070;8.436;2022-08-03T00:19:24;2.20;;;1.65;;
40729;SDS011;26418;50.070;8.436;2022-08-03T00:21:49;1.65;;;1.33;;
40729;SDS011;26418;50.070;8.436;2022-08-03T00:24:15;2.50;;;1.58;;
40729;SDS011;26418;50.070;8.436;2022-08-03T00:26:40;3.75;;;1.60;;
40729;SDS011;26418;50.070;8.436;2022-08-03T00:29:06;2.28;;;1.20;;
40729;SDS011;26418;50.070;8.436;2022-08-03T00:31:32;3.85;;;1.92;;
40729;SDS011;26418;50.070;8.436;2022-08-03T00:34:08;3.33;;;1.70;;
40729;SDS011;26418;50.070;8.436;2022-08-03T00:36:33;3.65;;;1.90;;
40729;SDS011;26418;50.070;8.436;2022-08-03T00:38:58;2.17;;;1.40;;
40729;SDS011;26418;50.070;8.436;2022-08-03T00:41:24;3.30;;;1.55;;
40729;SDS011;26418;50.070;8.436;2022-08-03T00:44:08;1.30;;;1.20;;
40729;SDS011;26418;50.070;8.436;2022-08-03T00:46:33;1.80;;;1.60;;
40729;SDS011;26418;50.070;8.436;2022-08-03T00:48:59;4.43;;;1.75;;
40729;SDS011;26418;50.070;8.436;2022-08-03T00:54:23;6.50;;;1.35;;
40729;SDS011;26418;50.070;8.436;2022-08-03T00:56:49;1.70;;;1.60;;
40729;SDS011;26418;50.070;8.436;2022-08-03T00:59:15;3.38;;;1.65;;
40729;SDS011;26418;50.070;8.436;2022-08-03T01:01:42;1.65;;;1.40;;
40729;SDS011;26418;50.070;8.436;2022-08-03T01:04:08;1.98;;;1.45;;
40729;SDS011;26418;50.070;8.436;2022-08-03T01:06:36;3.17;;;1.52;;
40729;SDS011;26418;50.070;8.436;2022-08-03T01:11:37;3.22;;;1.38;;
40729;SDS011;26418;50.070;8.436;2022-08-03T01:24:57;4.40;;;1.80;;
40729;SDS011;26418;50.070;8.436;2022-08-03T01:27:34;2.65;;;1.48;;
40729;SDS011;26418;50.070;8.436;2022-08-03T01:30:10;4.25;;;1.67;;
40729;SDS011;26418;50.070;8.436;2022-08-03T01:32:41;2.47;;;1.50;;
40729;SDS011;26418;50.070;8.436;2022-08-03T01:35:37;2.45;;;1.52;;
40729;SDS011;26418;50.070;8.436;2022-08-03T01:40:52;9.43;;;1.85;;
40729;SDS011;26418;50.070;8.436;2022-08-03T01:43:20;2.38;;;1.98;;
40729;SDS011;26418;50.070;8.436;2022-08-03T01:45:52;2.53;;;1.55;;
40729;SDS011;26418;50.070;8.436;2022-08-03T01:48:19;1.83;;;1.48;;
40729;SDS011;26418;50.070;8.436;2022-08-03T01:50:46;1.85;;;1.60;;
40729;SDS011;26418;50.070;8.436;2022-08-03T01:53:15;4.03;;;1.65;;
40729;SDS011;26418;50.070;8.436;2022-08-03T01:55:43;2.28;;;1.85;;
40729;SDS011;26418;50.070;8.436;2022-08-03T01:58:12;2.72;;;1.75;;
40729;SDS011;26418;50.070;8.436;2022-08-03T02:00:39;3.53;;;2.00;;
40729;SDS011;26418;50.070;8.436;2022-08-03T02:03:06;3.15;;;1.70;;
40729;SDS011;26418;50.070;8.436;2022-08-03T02:05:33;2.72;;;1.80;;
40729;SDS011;26418;50.070;8.436;2022-08-03T02:08:00;2.33;;;1.80;;
40729;SDS011;26418;50.070;8.436;2022-08-03T02:10:28;3.42;;;2.08;;
40729;SDS011;26418;50.070;8.436;2022-08-03T02:12:55;2.35;;;1.80;;
40729;SDS011;26418;50.070;8.436;2022-08-03T02:15:23;3.00;;;2.03;;
40729;SDS011;26418;50.070;8.436;2022-08-03T02:17:51;2.22;;;1.90;;
40729;SDS011;26418;50.070;8.436;2022-08-03T02:20:18;4.43;;;1.92;;
40729;SDS011;26418;50.070;8.436;2022-08-03T02:22:45;2.28;;;1.90;;
40729;SDS011;26418;50.070;8.436;2022-08-03T02:25:12;1.70;;;1.55;;
40729;SDS011;26418;50.070;8.436;2022-08-03T02:27:42;2.88;;;1.73;;
40729;SDS011;26418;50.070;8.436;2022-08-03T02:30:13;1.98;;;1.30;;
40729;SDS011;26418;50.070;8.436;2022-08-03T02:32:40;1.73;;;1.63;;
40729;SDS011;26418;50.070;8.436;2022-08-03T02:35:10;1.50;;;1.40;;
40729;SDS011;26418;50.070;8.436;2022-08-03T02:37:41;2.47;;;1.70;;
40729;SDS011;26418;50.070;8.436;2022-08-03T02:40:11;2.22;;;1.65;;
40729;SDS011;26418;50.070;8.436;2022-08-03T02:42:37;2.75;;;1.65;;
40729;SDS011;26418;50.070;8.436;2022-08-03T02:45:06;1.52;;;1.40;;
40729;SDS011;26418;50.070;8.436;2022-08-03T02:47:39;2.70;;;2.03;;
40729;SDS011;26418;50.070;8.436;2022-08-03T02:50:07;3.05;;;1.65;;
40729;SDS011;26418;50.070;8.436;2022-08-03T02:52:35;2.80;;;1.83;;
40729;SDS011;26418;50.070;8.436;2022-08-03T02:55:01;3.00;;;1.92;;
40729;SDS011;26418;50.070;8.436;2022-08-03T02:57:29;2.50;;;1.77;;
40729;SDS011;26418;50.070;8.436;2022-08-03T02:59:57;2.58;;;1.85;;
40729;SDS011;26418;50.070;8.436;2022-08-03T03:02:24;2.10;;;1.90;;
40729;SDS011;26418;50.070;8.436;2022-08-03T03:04:52;6.80;;;2.22;;
40729;SDS011;26418;50.070;8.436;2022-08-03T03:07:20;3.25;;;1.50;;
40729;SDS011;26418;50.070;8.436;2022-08-03T03:09:47;2.95;;;1.90;;
40729;SDS011;26418;50.070;8.436;2022-08-03T03:12:13;3.70;;;1.95;;
40729;SDS011;26418;50.070;8.436;2022-08-03T03:14:41;2.15;;;1.85;;
40729;SDS011;26418;50.070;8.436;2022-08-03T03:17:08;2.22;;;2.00;;
40729;SDS011;26418;50.070;8.436;2022-08-03T03:19:35;2.08;;;1.90;;
40729;SDS011;26418;50.070;8.436;2022-08-03T03:22:03;5.63;;;2.45;;
40729;SDS011;26418;50.070;8.436;2022-08-03T03:24:30;2.05;;;1.45;;
40729;SDS011;26418;50.070;8.436;2022-08-03T03:26:57;4.15;;;2.28;;
40729;SDS011;26418;50.070;8.436;2022-08-03T03:29:23;4.75;;;1.92;;
40729;SDS011;26418;50.070;8.436;2022-08-03T03:31:48;2.40;;;2.20;;
40729;SDS011;26418;50.070;8.436;2022-08-03T03:34:17;2.50;;;2.20;;
40729;SDS011;26418;50.070;8.436;2022-08-03T03:36:44;2.42;;;2.08;;
40729;SDS011;26418;50.070;8.436;2022-08-03T03:39:09;4.03;;;2.00;;
40729;SDS011;26418;50.070;8.436;2022-08-03T03:41:36;1.83;;;1.70;;
40729;SDS011;26418;50.070;8.436;2022-08-03T03:44:02;2.00;;;1.80;;
40729;SDS011;26418;50.070;8.436;2022-08-03T03:46:27;2.33;;;2.00;;
40729;SDS011;26418;50.070;8.436;2022-08-03T03:48:53;2.40;;;1.80;;
40729;SDS011;26418;50.070;8.436;2022-08-03T03:51:18;3.97;;;2.00;;
40729;SDS011;26418;50.070;8.436;2022-08-03T03:53:54;2.53;;;1.90;;
40729;SDS011;26418;50.070;8.436;2022-08-03T03:56:20;3.13;;;1.90;;
40729;SDS011;26418;50.070;8.436;2022-08-03T03:58:45;3.55;;;1.90;;
40729;SDS011;26418;50.070;8.436;2022-08-03T04:01:11;5.40;;;2.35;;
40729;SDS011;26418;50.070;8.436;2022-08-03T04:03:37;3.10;;;2.38;;
40729;SDS011;26418;50.070;8.436;2022-08-03T04:06:03;2.58;;;2.10;;
40729;SDS011;26418;50.070;8.436;2022-08-03T04:08:47;2.90;;;2.20;;
40729;SDS011;26418;50.070;8.436;2022-08-03T04:11:33;3.25;;;2.35;;
40729;SDS011;26418;50.070;8.436;2022-08-03T04:14:11;4.10;;;2.30;;
40729;SDS011;26418;50.070;8.436;2022-08-03T04:16:41;4.10;;;2.30;;
40729;SDS011;26418;50.070;8.436;2022-08-03T04:19:13;2.33;;;1.97;;
40729;SDS011;26418;50.070;8.436;2022-08-03T04:21:44;2.75;;;1.95;;
40729;SDS011;26418;50.070;8.436;2022-08-03T04:24:13;4.45;;;2.55;;
40729;SDS011;26418;50.070;8.436;2022-08-03T04:26:40;2.65;;;2.33;;
40729;SDS011;26418;50.070;8.436;2022-08-03T04:29:07;3.92;;;2.45;;
40729;SDS011;26418;50.070;8.436;2022-08-03T04:31:35;3.10;;;2.30;;
40729;SDS011;26418;50.070;8.436;2022-08-03T04:34:02;5.68;;;2.72;;
40729;SDS011;26418;50.070;8.436;2022-08-03T04:36:30;5.18;;;2.00;;
40729;SDS011;26418;50.070;8.436;2022-08-03T04:41:31;2.45;;;2.03;;
40729;SDS011;26418;50.070;8.436;2022-08-03T04:43:59;7.53;;;2.40;;
40729;SDS011;26418;50.070;8.436;2022-08-03T04:46:27;3.22;;;2.03;;
40729;SDS011;26418;50.070;8.436;2022-08-03T04:48:55;6.10;;;2.08;;
40729;SDS011;26418;50.070;8.436;2022-08-03T04:51:22;5.57;;;2.90;;
40729;SDS011;26418;50.070;8.436;2022-08-03T04:53:48;5.88;;;3.10;;
40729;SDS011;26418;50.070;8.436;2022-08-03T04:56:14;3.47;;;2.10;;
40729;SDS011;26418;50.070;8.436;2022-08-03T04:58:39;5.80;;;2.42;;
40729;SDS011;26418;50.070;8.436;2022-08-03T05:01:05;3.80;;;2.67;;
40729;SDS011;26418;50.070;8.436;2022-08-03T05:03:30;2.75;;;2.25;;
40729;SDS011;26418;50.070;8.436;2022-08-03T05:05:56;2.70;;;2.50;;
40729;SDS011;26418;50.070;8.436;2022-08-03T05:08:21;4.53;;;3.05;;
40729;SDS011;26418;50.070;8.436;2022-08-03T05:10:47;3.83;;;3.00;;
40729;SDS011;26418;50.070;8.436;2022-08-03T05:13:12;3.28;;;2.70;;
40729;SDS011;26418;50.070;8.436;2022-08-03T05:15:38;3.75;;;3.30;;
40729;SDS011;26418;50.070;8.436;2022-08-03T05:18:04;3.17;;;2.55;;
40729;SDS011;26418;50.070;8.436;2022-08-03T05:20:30;5.57;;;2.97;;
40729;SDS011;26418;50.070;8.436;2022-08-03T05:22:56;4.03;;;2.83;;
40729;SDS011;26418;50.070;8.436;2022-08-03T05:25:22;6.00;;;3.00;;
40729;SDS011;26418;50.070;8.436;2022-08-03T05:27:47;3.13;;;2.38;;
40729;SDS011;26418;50.070;8.436;2022-08-03T05:30:13;3.83;;;2.65;;
40729;SDS011;26418;50.070;8.436;2022-08-03T05:32:39;6.88;;;3.10;;
40729;SDS011;26418;50.070;8.436;2022-08-03T05:35:05;5.28;;;3.72;;
40729;SDS011;26418;50.070;8.436;2022-08-03T05:37:31;5.28;;;3.78;;
40729;SDS011;26418;50.070;8.436;2022-08-03T05:39:56;5.47;;;3.38;;
40729;SDS011;26418;50.070;8.436;2022-08-03T05:42:21;6.30;;;3.22;;
40729;SDS011;26418;50.070;8.436;2022-08-03T05:44:47;4.88;;;3.90;;
40729;SDS011;26418;50.070;8.436;2022-08-03T05:47:12;5.72;;;3.92;;
40729;SDS011;26418;50.070;8.436;2022-08-03T05:49:38;4.80;;;3.63;;
40729;SDS011;26418;50.070;8.436;2022-08-03T05:52:03;8.73;;;3.85;;
40729;SDS011;26418;50.070;8.436;2022-08-03T05:54:29;3.58;;;3.15;;
40729;SDS011;26418;50.070;8.436;2022-08-03T05:56:54;3.85;;;3.47;;
40729;SDS011;26418;50.070;8.436;2022-08-03T05:59:20;4.47;;;3.85;;
40729;SDS011;26418;50.070;8.436;2022-08-03T06:01:46;7.00;;;4.40;;
40729;SDS011;26418;50.070;8.436;2022-08-03T06:04:11;3.97;;;3.65;;
40729;SDS011;26418;50.070;8.436;2022-08-03T06:06:37;6.15;;;4.00;;
40729;SDS011;26418;50.070;8.436;2022-08-03T06:09:02;4.47;;;4.07;;
40729;SDS011;26418;50.070;8.436;2022-08-03T06:11:28;5.28;;;4.18;;
40729;SDS011;26418;50.070;8.436;2022-08-03T06:13:53;8.10;;;4.03;;
40729;SDS011;26418;50.070;8.436;2022-08-03T06:16:19;8.90;;;4.35;;
40729;SDS011;26418;50.070;8.436;2022-08-03T06:18:44;6.05;;;4.22;;
40729;SDS011;26418;50.070;8.436;2022-08-03T06:21:11;5.47;;;3.72;;
40729;SDS011;26418;50.070;8.436;2022-08-03T06:23:36;6.97;;;3.97;;
40729;SDS011;26418;50.070;8.436;2022-08-03T06:26:04;7.88;;;4.43;;
40729;SDS011;26418;50.070;8.436;2022-08-03T06:28:30;6.63;;;4.03;;
40729;SDS011;26418;50.070;8.436;2022-08-03T06:30:56;5.85;;;3.55;;
40729;SDS011;26418;50.070;8.436;2022-08-03T06:33:21;5.43;;;3.50;;
40729;SDS011;26418;50.070;8.436;2022-08-03T06:35:46;8.43;;;3.92;;
40729;SDS011;26418;50.070;8.436;2022-08-03T06:38:12;6.85;;;4.00;;
40729;SDS011;26418;50.070;8.436;2022-08-03T06:40:37;4.38;;;3.30;;
40729;SDS011;26418;50.070;8.436;2022-08-03T06:43:04;4.93;;;3.60;;
40729;SDS011;26418;50.070;8.436;2022-08-03T06:45:30;5.90;;;3.75;;
40729;SDS011;26418;50.070;8.436;2022-08-03T06:47:59;8.18;;;4.15;;
40729;SDS011;26418;50.070;8.436;2022-08-03T06:50:26;8.93;;;4.57;;
40729;SDS011;26418;50.070;8.436;2022-08-03T06:52:51;5.45;;;4.45;;
40729;SDS011;26418;50.070;8.436;2022-08-03T06:55:16;6.22;;;4.20;;
40729;SDS011;26418;50.070;8.436;2022-08-03T06:57:42;4.25;;;3.60;;
40729;SDS011;26418;50.070;8.436;2022-08-03T07:00:07;6.68;;;3.40;;
40729;SDS011;26418;50.070;8.436;2022-08-03T07:02:33;8.40;;;3.17;;
40729;SDS011;26418;50.070;8.436;2022-08-03T07:04:59;5.82;;;3.55;;
40729;SDS011;26418;50.070;8.436;2022-08-03T07:07:25;6.00;;;3.53;;
40729;SDS011;26418;50.070;8.436;2022-08-03T07:09:51;5.70;;;3.55;;
40729;SDS011;26418;50.070;8.436;2022-08-03T07:12:16;3.83;;;3.28;;
40729;SDS011;26418;50.070;8.436;2022-08-03T07:14:42;13.02;;;3.55;;
40729;SDS011;26418;50.070;8.436;2022-08-03T07:17:07;4.88;;;3.35;;
40729;SDS011;26418;50.070;8.436;2022-08-03T07:19:32;6.00;;;3.10;;
40729;SDS011;26418;50.070;8.436;2022-08-03T07:21:58;3.47;;;2.83;;
40729;SDS011;26418;50.070;8.436;2022-08-03T07:24:23;7.93;;;3.03;;
40729;SDS011;26418;50.070;8.436;2022-08-03T07:26:48;7.28;;;3.30;;
40729;SDS011;26418;50.070;8.436;2022-08-03T07:29:14;4.43;;;2.70;;
40729;SDS011;26418;50.070;8.436;2022-08-03T07:31:49;3.33;;;2.83;;
40729;SDS011;26418;50.070;8.436;2022-08-03T07:34:15;12.20;;;3.17;;
40729;SDS011;26418;50.070;8.436;2022-08-03T07:36:40;5.60;;;2.75;;
40729;SDS011;26418;50.070;8.436;2022-08-03T07:39:06;4.10;;;2.90;;
40729;SDS011;26418;50.070;8.436;2022-08-03T07:41:33;5.45;;;2.65;;
40729;SDS011;26418;50.070;8.436;2022-08-03T07:43:58;6.43;;;2.45;;
40729;SDS011;26418;50.070;8.436;2022-08-03T07:46:26;4.25;;;2.90;;
40729;SDS011;26418;50.070;8.436;2022-08-03T07:48:53;4.40;;;2.30;;
40729;SDS011;26418;50.070;8.436;2022-08-03T07:51:18;3.20;;;2.38;;
40729;SDS011;26418;50.070;8.436;2022-08-03T07:53:44;4.15;;;2.83;;
40729;SDS011;26418;50.070;8.436;2022-08-03T07:56:09;5.45;;;2.58;;
40729;SDS011;26418;50.070;8.436;2022-08-03T07:58:35;5.38;;;2.33;;
40729;SDS011;26418;50.070;8.436;2022-08-03T08:01:01;4.20;;;2.70;;
40729;SDS011;26418;50.070;8.436;2022-08-03T08:03:26;4.78;;;2.30;;
40729;SDS011;26418;50.070;8.436;2022-08-03T08:05:52;3.15;;;2.50;;
40729;SDS011;26418;50.070;8.436;2022-08-03T08:08:18;5.93;;;2.42;;
40729;SDS011;26418;50.070;8.436;2022-08-03T08:10:44;2.92;;;2.40;;
40729;SDS011;26418;50.070;8.436;2022-08-03T08:13:10;4.85;;;2.50;;
40729;SDS011;26418;50.070;8.436;2022-08-03T08:15:36;16.27;;;2.53;;
40729;SDS011;26418;50.070;8.436;2022-08-03T08:18:02;4.53;;;2.38;;
40729;SDS011;26418;50.070;8.436;2022-08-03T08:20:31;5.50;;;2.70;;
40729;SDS011;26418;50.070;8.436;2022-08-03T08:23:02;4.88;;;2.50;;
40729;SDS011;26418;50.070;8.436;2022-08-03T08:25:29;2.63;;;2.43;;
40729;SDS011;26418;50.070;8.436;2022-08-03T08:27:56;5.43;;;2.38;;
40729;SDS011;26418;50.070;8.436;2022-08-03T08:30:22;5.68;;;2.10;;
40729;SDS011;26418;50.070;8.436;2022-08-03T08:32:48;2.38;;;2.08;;
40729;SDS011;26418;50.070;8.436;2022-08-03T08:35:14;4.53;;;2.50;;
40729;SDS011;26418;50.070;8.436;2022-08-03T08:37:41;2.75;;;2.30;;
40729;SDS011;26418;50.070;8.436;2022-08-03T08:40:07;2.67;;;2.33;;
40729;SDS011;26418;50.070;8.436;2022-08-03T08:42:35;4.88;;;2.35;;
40729;SDS011;26418;50.070;8.436;2022-08-03T08:45:02;3.08;;;2.22;;
40729;SDS011;26418;50.070;8.436;2022-08-03T08:47:33;5.65;;;2.20;;
40729;SDS011;26418;50.070;8.436;2022-08-03T08:50:02;3.60;;;2.22;;
40729;SDS011;26418;50.070;8.436;2022-08-03T08:52:28;2.20;;;1.88;;
40729;SDS011;26418;50.070;8.436;2022-08-03T08:54:55;6.60;;;1.83;;
40729;SDS011;26418;50.070;8.436;2022-08-03T08:57:25;3.53;;;2.00;;
40729;SDS011;26418;50.070;8.436;2022-08-03T09:00:02;5.00;;;2.00;;
40729;SDS011;26418;50.070;8.436;2022-08-03T09:02:38;2.55;;;2.20;;
40729;SDS011;26418;50.070;8.436;2022-08-03T09:05:09;2.25;;;2.00;;
40729;SDS011;26418;50.070;8.436;2022-08-03T09:07:39;4.72;;;2.05;;
40729;SDS011;26418;50.070;8.436;2022-08-03T09:10:06;4.10;;;2.72;;
40729;SDS011;26418;50.070;8.436;2022-08-03T09:12:43;3.17;;;2.10;;
40729;SDS011;26418;50.070;8.436;2022-08-03T09:15:23;3.05;;;1.90;;
40729;SDS011;26418;50.070;8.436;2022-08-03T09:17:51;6.18;;;2.17;;
40729;SDS011;26418;50.070;8.436;2022-08-03T09:20:19;3.38;;;1.95;;
40729;SDS011;26418;50.070;8.436;2022-08-03T09:23:02;6.78;;;1.83;;
40729;SDS011;26418;50.070;8.436;2022-08-03T09:30:31;2.23;;;1.80;;
40729;SDS011;26418;50.070;8.436;2022-08-03T09:33:04;6.13;;;1.90;;
40729;SDS011;26418;50.070;8.436;2022-08-03T09:35:31;3.38;;;2.03;;
40729;SDS011;26418;50.070;8.436;2022-08-03T09:40:36;5.22;;;2.40;;
40729;SDS011;26418;50.070;8.436;2022-08-03T09:43:01;3.67;;;2.15;;
40729;SDS011;26418;50.070;8.436;2022-08-03T09:45:27;5.68;;;2.22;;
40729;SDS011;26418;50.070;8.436;2022-08-03T09:47:54;3.92;;;2.50;;
40729;SDS011;26418;50.070;8.436;2022-08-03T09:50:20;5.05;;;2.10;;
40729;SDS011;26418;50.070;8.436;2022-08-03T09:52:46;2.25;;;1.95;;
40729;SDS011;26418;50.070;8.436;2022-08-03T09:55:15;2.47;;;1.60;;
40729;SDS011;26418;50.070;8.436;2022-08-03T09:57:41;5.90;;;2.03;;
40729;SDS011;26418;50.070;8.436;2022-08-03T10:00:12;3.42;;;2.05;;
40729;SDS011;26418;50.070;8.436;2022-08-03T10:02:40;2.65;;;1.77;;
40729;SDS011;26418;50.070;8.436;2022-08-03T10:05:07;2.65;;;1.88;;
40729;SDS011;26418;50.070;8.436;2022-08-03T10:07:42;2.55;;;1.95;;
40729;SDS011;26418;50.070;8.436;2022-08-03T10:10:13;3.42;;;2.00;;
40729;SDS011;26418;50.070;8.436;2022-08-03T10:12:39;1.92;;;1.83;;
40729;SDS011;26418;50.070;8.436;2022-08-03T10:15:06;2.35;;;1.73;;
40729;SDS011;26418;50.070;8.436;2022-08-03T10:17:32;2.10;;;1.90;;
40729;SDS011;26418;50.070;8.436;2022-08-03T10:19:58;3.10;;;2.13;;
40729;SDS011;26418;50.070;8.436;2022-08-03T10:22:28;2.05;;;1.75;;
40729;SDS011;26418;50.070;8.436;2022-08-03T10:25:02;2.25;;;1.70;;
40729;SDS011;26418;50.070;8.436;2022-08-03T10:27:32;2.03;;;1.80;;
40729;SDS011;26418;50.070;8.436;2022-08-03T10:30:01;5.25;;;2.00;;
40729;SDS011;26418;50.070;8.436;2022-08-03T10:32:48;3.83;;;1.90;;
40729;SDS011;26418;50.070;8.436;2022-08-03T10:35:21;5.13;;;2.00;;
40729;SDS011;26418;50.070;8.436;2022-08-03T10:37:56;3.03;;;1.88;;
40729;SDS011;26418;50.070;8.436;2022-08-03T10:40:23;3.55;;;2.00;;
40729;SDS011;26418;50.070;8.436;2022-08-03T10:42:53;3.05;;;1.83;;
40729;SDS011;26418;50.070;8.436;2022-08-03T10:45:26;2.40;;;1.98;;
40729;SDS011;26418;50.070;8.436;2022-08-03T10:47:52;2.25;;;2.00;;
40729;SDS011;26418;50.070;8.436;2022-08-03T10:50:21;3.63;;;2.20;;
40729;SDS011;26418;50.070;8.436;2022-08-03T10:55:39;4.13;;;2.35;;
40729;SDS011;26418;50.070;8.436;2022-08-03T11:01:16;2.67;;;2.38;;
40729;SDS011;26418;50.070;8.436;2022-08-03T11:06:19;4.57;;;2.40;;
40729;SDS011;26418;50.070;8.436;2022-08-03T11:11:37;2.83;;;2.30;;
40729;SDS011;26418;50.070;8.436;2022-08-03T11:14:11;5.33;;;2.20;;
40729;SDS011;26418;50.070;8.436;2022-08-03T11:16:43;3.20;;;2.50;;
40729;SDS011;26418;50.070;8.436;2022-08-03T11:19:13;2.97;;;1.90;;
40729;SDS011;26418;50.070;8.436;2022-08-03T11:35:08;2.65;;;2.10;;
40729;SDS011;26418;50.070;8.436;2022-08-03T11:37:35;8.40;;;2.67;;
40729;SDS011;26418;50.070;8.436;2022-08-03T11:43:05;5.30;;;1.92;;
40729;SDS011;26418;50.070;8.436;2022-08-03T11:45:34;6.07;;;2.03;;
40729;SDS011;26418;50.070;8.436;2022-08-03T11:48:12;2.50;;;2.15;;
40729;SDS011;26418;50.070;8.436;2022-08-03T11:50:40;2.17;;;1.75;;
40729;SDS011;26418;50.070;8.436;2022-08-03T11:53:10;2.20;;;1.98;;
40729;SDS011;26418;50.070;8.436;2022-08-03T11:55:40;2.55;;;1.77;;
40729;SDS011;26418;50.070;8.436;2022-08-03T11:58:07;2.50;;;1.88;;
40729;SDS011;26418;50.070;8.436;2022-08-03T12:00:33;2.47;;;2.25;;
40729;SDS011;26418;50.070;8.436;2022-08-03T12:03:05;4.75;;;2.22;;
40729;SDS011;26418;50.070;8.436;2022-08-03T12:05:34;2.45;;;1.85;;
40729;SDS011;26418;50.070;8.436;2022-08-03T12:08:04;2.65;;;1.60;;
40729;SDS011;26418;50.070;8.436;2022-08-03T12:10:31;4.10;;;1.67;;
40729;SDS011;26418;50.070;8.436;2022-08-03T12:12:57;2.65;;;1.75;;
40729;SDS011;26418;50.070;8.436;2022-08-03T12:15:28;2.33;;;1.95;;
40729;SDS011;26418;50.070;8.436;2022-08-03T12:17:56;3.90;;;1.80;;
40729;SDS011;26418;50.070;8.436;2022-08-03T12:20:22;4.65;;;1.83;;
40729;SDS011;26418;50.070;8.436;2022-08-03T12:22:49;2.85;;;1.88;;
40729;SDS011;26418;50.070;8.436;2022-08-03T12:25:20;2.15;;;1.80;;
40729;SDS011;26418;50.070;8.436;2022-08-03T12:27:47;1.98;;;1.80;;
40729;SDS011;26418;50.070;8.436;2022-08-03T12:30:14;2.95;;;2.05;;
40729;SDS011;26418;50.070;8.436;2022-08-03T12:32:41;1.67;;;1.58;;
40729;SDS011;26418;50.070;8.436;2022-08-03T12:35:07;2.38;;;1.63;;
40729;SDS011;26418;50.070;8.436;2022-08-03T12:37:32;2.00;;;1.80;;
40729;SDS011;26418;50.070;8.436;2022-08-03T12:39:59;2.58;;;1.83;;
40729;SDS011;26418;50.070;8.436;2022-08-03T12:42:29;2.70;;;2.30;;
40729;SDS011;26418;50.070;8.436;2022-08-03T12:44:55;7.85;;;2.10;;
40729;SDS011;26418;50.070;8.436;2022-08-03T12:47:20;2.97;;;1.92;;
40729;SDS011;26418;50.070;8.436;2022-08-03T12:49:50;3.70;;;1.90;;
40729;SDS011;26418;50.070;8.436;2022-08-03T12:52:17;3.35;;;1.85;;
40729;SDS011;26418;50.070;8.436;2022-08-03T12:54:57;2.20;;;1.75;;
40729;SDS011;26418;50.070;8.436;2022-08-03T12:57:24;2.22;;;1.80;;
40729;SDS011;26418;50.070;8.436;2022-08-03T13:00:10;2.47;;;1.58;;
40729;SDS011;26418;50.070;8.436;2022-08-03T13:02:37;1.80;;;1.50;;
40729;SDS011;26418;50.070;8.436;2022-08-03T13:05:08;3.08;;;1.73;;
40729;SDS011;26418;50.070;8.436;2022-08-03T13:07:42;1.70;;;1.60;;
40729;SDS011;26418;50.070;8.436;2022-08-03T13:10:09;3.35;;;1.65;;
40729;SDS011;26418;50.070;8.436;2022-08-03T13:12:47;2.30;;;2.10;;
40729;SDS011;26418;50.070;8.436;2022-08-03T13:15:14;4.45;;;1.98;;
40729;SDS011;26418;50.070;8.436;2022-08-03T13:17:40;2.35;;;1.40;;
40729;SDS011;26418;50.070;8.436;2022-08-03T13:20:05;1.27;;;1.17;;
40729;SDS011;26418;50.070;8.436;2022-08-03T13:22:31;2.05;;;1.42;;
40729;SDS011;26418;50.070;8.436;2022-08-03T13:24:57;2.65;;;1.52;;
40729;SDS011;26418;50.070;8.436;2022-08-03T13:27:25;2.30;;;1.42;;
40729;SDS011;26418;50.070;8.436;2022-08-03T13:29:52;2.17;;;1.58;;
40729;SDS011;26418;50.070;8.436;2022-08-03T13:32:18;1.27;;;1.17;;
40729;SDS011;26418;50.070;8.436;2022-08-03T13:34:44;1.70;;;1.35;;
40729;SDS011;26418;50.070;8.436;2022-08-03T13:37:10;1.60;;;1.17;;
40729;SDS011;26418;50.070;8.436;2022-08-03T13:39:37;2.42;;;1.52;;
40729;SDS011;26418;50.070;8.436;2022-08-03T13:42:02;1.55;;;1.30;;
40729;SDS011;26418;50.070;8.436;2022-08-03T13:44:29;1.73;;;1.42;;
40729;SDS011;26418;50.070;8.436;2022-08-03T13:46:58;1.95;;;1.25;;
40729;SDS011;26418;50.070;8.436;2022-08-03T13:49:25;1.80;;;1.67;;
40729;SDS011;26418;50.070;8.436;2022-08-03T13:51:51;5.45;;;1.30;;
40729;SDS011;26418;50.070;8.436;2022-08-03T13:54:16;2.13;;;1.52;;
40729;SDS011;26418;50.070;8.436;2022-08-03T13:56:43;1.17;;;1.08;;
40729;SDS011;26418;50.070;8.436;2022-08-03T13:59:14;2.45;;;1.27;;
40729;SDS011;26418;50.070;8.436;2022-08-03T14:01:39;3.58;;;1.55;;
40729;SDS011;26418;50.070;8.436;2022-08-03T14:04:04;1.95;;;1.77;;
40729;SDS011;26418;50.070;8.436;2022-08-03T14:06:31;1.58;;;1.40;;
40729;SDS011;26418;50.070;8.436;2022-08-03T14:08:56;1.40;;;1.23;;
40729;SDS011;26418;50.070;8.436;2022-08-03T14:11:21;2.00;;;1.55;;
40729;SDS011;26418;50.070;8.436;2022-08-03T14:13:47;1.40;;;1.30;;
40729;SDS011;26418;50.070;8.436;2022-08-03T14:16:12;1.92;;;1.55;;
40729;SDS011;26418;50.070;8.436;2022-08-03T14:18:38;1.80;;;1.70;;
40729;SDS011;26418;50.070;8.436;2022-08-03T14:21:04;3.03;;;1.48;;
40729;SDS011;26418;50.070;8.436;2022-08-03T14:23:30;1.48;;;1.27;;
40729;SDS011;26418;50.070;8.436;2022-08-03T14:25:56;2.38;;;1.42;;
40729;SDS011;26418;50.070;8.436;2022-08-03T14:28:22;3.50;;;1.20;;
40729;SDS011;26418;50.070;8.436;2022-08-03T14:30:48;1.30;;;1.10;;
40729;SDS011;26418;50.070;8.436;2022-08-03T14:33:18;2.35;;;1.58;;
40729;SDS011;26418;50.070;8.436;2022-08-03T14:35:44;2.92;;;1.23;;
40729;SDS011;26418;50.070;8.436;2022-08-03T14:38:10;1.40;;;1.30;;
40729;SDS011;26418;50.070;8.436;2022-08-03T14:40:38;1.90;;;1.55;;
40729;SDS011;26418;50.070;8.436;2022-08-03T14:43:07;4.97;;;1.45;;
40729;SDS011;26418;50.070;8.436;2022-08-03T14:45:38;1.90;;;1.20;;
40729;SDS011;26418;50.070;8.436;2022-08-03T14:48:09;1.40;;;1.15;;
40729;SDS011;26418;50.070;8.436;2022-08-03T14:50:36;4.28;;;1.70;;
40729;SDS011;26418;50.070;8.436;2022-08-03T14:53:01;1.77;;;1.40;;
40729;SDS011;26418;50.070;8.436;2022-08-03T14:55:27;3.17;;;1.50;;
40729;SDS011;26418;50.070;8.436;2022-08-03T14:57:54;1.38;;;1.20;;
40729;SDS011;26418;50.070;8.436;2022-08-03T15:00:21;2.13;;;1.27;;
40729;SDS011;26418;50.070;8.436;2022-08-03T15:02:46;3.05;;;1.42;;
40729;SDS011;26418;50.070;8.436;2022-08-03T15:05:11;6.47;;;1.40;;
40729;SDS011;26418;50.070;8.436;2022-08-03T15:07:39;1.67;;;1.20;;
40729;SDS011;26418;50.070;8.436;2022-08-03T15:10:05;1.80;;;1.48;;
40729;SDS011;26418;50.070;8.436;2022-08-03T15:12:30;2.30;;;1.63;;
40729;SDS011;26418;50.070;8.436;2022-08-03T15:14:56;1.40;;;1.30;;
40729;SDS011;26418;50.070;8.436;2022-08-03T15:17:22;1.92;;;1.17;;
40729;SDS011;26418;50.070;8.436;2022-08-03T15:19:50;1.92;;;1.40;;
40729;SDS011;26418;50.070;8.436;2022-08-03T15:22:16;2.83;;;1.77;;
40729;SDS011;26418;50.070;8.436;2022-08-03T15:24:43;1.83;;;1.60;;
40729;SDS011;26418;50.070;8.436;2022-08-03T15:27:11;1.95;;;1.42;;
40729;SDS011;26418;50.070;8.436;2022-08-03T15:29:36;2.85;;;1.00;;
40729;SDS011;26418;50.070;8.436;2022-08-03T15:32:02;4.22;;;1.38;;
40729;SDS011;26418;50.070;8.436;2022-08-03T15:34:27;1.70;;;1.40;;
40729;SDS011;26418;50.070;8.436;2022-08-03T15:36:53;3.78;;;1.60;;
40729;SDS011;26418;50.070;8.436;2022-08-03T15:39:18;2.65;;;1.40;;
40729;SDS011;26418;50.070;8.436;2022-08-03T15:41:44;1.50;;;1.40;;
40729;SDS011;26418;50.070;8.436;2022-08-03T15:44:09;2.50;;;1.60;;
40729;SDS011;26418;50.070;8.436;2022-08-03T15:46:35;3.33;;;1.63;;
40729;SDS011;26418;50.070;8.436;2022-08-03T15:49:00;2.30;;;1.52;;